PWSweather.com
Personal Weather Stations
Station Observations
IDELFT1
DelftNL

DelftNL

Lat: 51.98, Lon: 4.34

Elevation: -6

Station Type: Davis Vantage Pro2 Plus

Latest ConditionsUpdated 7:35:00 PM GMT+01:01 Monday, Jul 16, 2018
Currently Today's Max Today's Min Today's Average
Temperature 83.2°F28.4°C 85.9°F29.9°C 63.6°F17.6°C 76.2°F24.6°C
Dew Point 52.7°F11.5°C 60.5°F15.8°C 50.8°F10.4°C 55.2°F12.9°C
Winds Calm Calm 5.8 mph -9.3 kmh - - 0.8 mph 1.3 kmh
Wind Gusts -- 11.5 mph18.5 kmh - -
Humidity 35% 81% 32% 52%
Pressure 29.84 in1010.5 mb 29.93 in1013.5 mb 29.82 in1009.8 mb -
Hour Temp Dew Point Humidity Winds Wind Gusts Pressure Precip Precip Rate Daily Precip Total
07:35 PM 83.2°F28.4°C 52.7°F11.5°C 35% Calm Calm -- 29.84 in1010.5 mb - 0.00 in0.0 mm 0.00 in0.0 mm
07:30 PM 83.6°F28.7°C 53.1°F11.7°C 35% Calm Calm -- 29.84 in1010.5 mb - 0.00 in0.0 mm 0.00 in0.0 mm
07:25 PM 83.8°F28.8°C 53.2°F11.8°C 35% Calm Calm -- 29.84 in1010.5 mb - 0.00 in0.0 mm 0.00 in0.0 mm
07:20 PM 83.7°F28.7°C 53.1°F11.7°C 35% Calm Calm -- 29.83 in1010.2 mb - 0.00 in0.0 mm 0.00 in0.0 mm
07:15 PM 83.7°F28.7°C 53.1°F11.7°C 35% Calm Calm -- 29.84 in1010.5 mb - 0.00 in0.0 mm 0.00 in0.0 mm
07:10 PM 83.9°F28.8°C 52.5°F11.4°C 34% Calm Calm 1.2 mph1.9 kmh 29.83 in1010.2 mb - 0.00 in0.0 mm 0.00 in0.0 mm
07:00 PM 84.2°F29.0°C 52.8°F11.6°C 34% 1.2 mph N1.9 kmh N 4.6 mph7.4 kmh 29.83 in1010.2 mb - 0.00 in0.0 mm 0.00 in0.0 mm
06:55 PM 84.4°F29.1°C 53.0°F11.7°C 34% Calm Calm 1.2 mph1.9 kmh 29.84 in1010.5 mb - 0.00 in0.0 mm 0.00 in0.0 mm
06:50 PM 84.5°F29.2°C 53.1°F11.7°C 34% Calm Calm -- 29.84 in1010.5 mb - 0.00 in0.0 mm 0.00 in0.0 mm
06:45 PM 84.6°F29.2°C 53.1°F11.7°C 34% 1.2 mph N1.9 kmh N 5.8 mph9.3 kmh 29.83 in1010.2 mb - 0.00 in0.0 mm 0.00 in0.0 mm
06:40 PM 84.4°F29.1°C 53.0°F11.7°C 34% 3.5 mph N5.6 kmh N 4.6 mph7.4 kmh 29.83 in1010.2 mb - 0.00 in0.0 mm 0.00 in0.0 mm
06:35 PM 84.3°F29.1°C 52.9°F11.6°C 34% Calm Calm -- 29.83 in1010.2 mb - 0.00 in0.0 mm 0.00 in0.0 mm
06:30 PM 84.7°F29.3°C 52.4°F11.3°C 33% Calm Calm 4.6 mph7.4 kmh 29.83 in1010.2 mb - 0.00 in0.0 mm 0.00 in0.0 mm
06:25 PM 84.8°F29.3°C 53.3°F11.8°C 34% Calm Calm -- 29.83 in1010.2 mb - 0.00 in0.0 mm 0.00 in0.0 mm
06:20 PM 84.8°F29.3°C 53.3°F11.8°C 34% 3.5 mph N5.6 kmh N 6.9 mph11.1 kmh 29.83 in1010.2 mb - 0.00 in0.0 mm 0.00 in0.0 mm
06:15 PM 84.6°F29.2°C 53.1°F11.7°C 34% 4.6 mph N7.4 kmh N 5.8 mph9.3 kmh 29.83 in1010.2 mb - 0.00 in0.0 mm 0.00 in0.0 mm
06:10 PM 84.7°F29.3°C 53.2°F11.8°C 34% Calm Calm 6.9 mph11.1 kmh 29.83 in1010.2 mb - 0.00 in0.0 mm 0.00 in0.0 mm
06:00 PM 85.2°F29.6°C 52.8°F11.6°C 33% 1.2 mph N1.9 kmh N 6.9 mph11.1 kmh 29.82 in1009.8 mb - 0.00 in0.0 mm 0.00 in0.0 mm
05:55 PM 84.9°F29.4°C 53.4°F11.9°C 34% 1.2 mph N1.9 kmh N -- 29.83 in1010.2 mb - 0.00 in0.0 mm 0.00 in0.0 mm
05:50 PM 84.7°F29.3°C 52.4°F11.3°C 33% 2.3 mph N3.7 kmh N 5.8 mph9.3 kmh 29.83 in1010.2 mb - 0.00 in0.0 mm 0.00 in0.0 mm
05:45 PM 85.1°F29.5°C 52.8°F11.6°C 33% 4.6 mph N7.4 kmh N 8.1 mph13.0 kmh 29.83 in1010.2 mb - 0.00 in0.0 mm 0.00 in0.0 mm
05:40 PM 85.0°F29.4°C 52.7°F11.5°C 33% 4.6 mph NNW7.4 kmh NNW 9.2 mph14.8 kmh 29.83 in1010.2 mb - 0.00 in0.0 mm 0.00 in0.0 mm
05:35 PM 84.7°F29.3°C 53.2°F11.8°C 34% 2.3 mph NNW3.7 kmh NNW 5.8 mph9.3 kmh 29.83 in1010.2 mb - 0.00 in0.0 mm 0.00 in0.0 mm
05:30 PM 84.7°F29.3°C 53.2°F11.8°C 34% 5.8 mph NW9.3 kmh NW 8.1 mph13.0 kmh 29.83 in1010.2 mb - 0.00 in0.0 mm 0.00 in0.0 mm
05:25 PM 84.8°F29.3°C 52.5°F11.4°C 33% 3.5 mph NW5.6 kmh NW 8.1 mph13.0 kmh 29.83 in1010.2 mb - 0.00 in0.0 mm 0.00 in0.0 mm
05:20 PM 85.1°F29.5°C 51.9°F11.1°C 32% 3.5 mph NW5.6 kmh NW 5.8 mph9.3 kmh 29.83 in1010.2 mb - 0.00 in0.0 mm 0.00 in0.0 mm
05:15 PM 85.4°F29.7°C 52.2°F11.2°C 32% 2.3 mph NW3.7 kmh NW 8.1 mph13.0 kmh 29.83 in1010.2 mb - 0.00 in0.0 mm 0.00 in0.0 mm
05:10 PM 85.6°F29.8°C 53.2°F11.8°C 33% 1.2 mph NNW1.9 kmh NNW 4.6 mph7.4 kmh 29.83 in1010.2 mb - 0.00 in0.0 mm 0.00 in0.0 mm
05:00 PM 85.4°F29.7°C 53.0°F11.7°C 33% 3.5 mph NW5.6 kmh NW 8.1 mph13.0 kmh 29.84 in1010.5 mb - 0.00 in0.0 mm 0.00 in0.0 mm
04:55 PM 85.6°F29.8°C 53.2°F11.8°C 33% 1.2 mph NW1.9 kmh NW 6.9 mph11.1 kmh 29.84 in1010.5 mb - 0.00 in0.0 mm 0.00 in0.0 mm
04:50 PM 85.8°F29.9°C 53.4°F11.9°C 33% 5.8 mph NW9.3 kmh NW 8.1 mph13.0 kmh 29.84 in1010.5 mb - 0.00 in0.0 mm 0.00 in0.0 mm
04:45 PM 85.6°F29.8°C 53.2°F11.8°C 33% 4.6 mph NW7.4 kmh NW 8.1 mph13.0 kmh 29.84 in1010.5 mb - 0.00 in0.0 mm 0.00 in0.0 mm
04:40 PM 85.6°F29.8°C 53.2°F11.8°C 33% 2.3 mph NW3.7 kmh NW 9.2 mph14.8 kmh 29.84 in1010.5 mb - 0.00 in0.0 mm 0.00 in0.0 mm
04:35 PM 85.6°F29.8°C 53.2°F11.8°C 33% 4.6 mph NW7.4 kmh NW 8.1 mph13.0 kmh 29.84 in1010.5 mb - 0.00 in0.0 mm 0.00 in0.0 mm
04:30 PM 85.2°F29.6°C 53.7°F12.1°C 34% 2.3 mph NW3.7 kmh NW 8.1 mph13.0 kmh 29.84 in1010.5 mb - 0.00 in0.0 mm 0.00 in0.0 mm
04:25 PM 85.4°F29.7°C 53.0°F11.7°C 33% Calm Calm -- 29.84 in1010.5 mb - 0.00 in0.0 mm 0.00 in0.0 mm
04:20 PM 85.6°F29.8°C 53.2°F11.8°C 33% 2.3 mph NW3.7 kmh NW 9.2 mph14.8 kmh 29.84 in1010.5 mb - 0.00 in0.0 mm 0.00 in0.0 mm
04:15 PM 85.7°F29.8°C 53.3°F11.8°C 33% Calm Calm -- 29.84 in1010.5 mb - 0.00 in0.0 mm 0.00 in0.0 mm
04:10 PM 85.9°F29.9°C 53.4°F11.9°C 33% 3.5 mph NW5.6 kmh NW 6.9 mph11.1 kmh 29.84 in1010.5 mb - 0.00 in0.0 mm 0.00 in0.0 mm
04:00 PM 84.7°F29.3°C 54.0°F12.2°C 35% 2.3 mph NW3.7 kmh NW 3.5 mph5.6 kmh 29.84 in1010.5 mb - 0.00 in0.0 mm 0.00 in0.0 mm
03:55 PM 84.3°F29.1°C 52.9°F11.6°C 34% Calm Calm -- 29.84 in1010.5 mb - 0.00 in0.0 mm 0.00 in0.0 mm
03:50 PM 84.6°F29.2°C 52.3°F11.3°C 33% Calm Calm -- 29.84 in1010.5 mb - 0.00 in0.0 mm 0.00 in0.0 mm
03:45 PM 84.5°F29.2°C 53.1°F11.7°C 34% Calm Calm -- 29.84 in1010.5 mb - 0.00 in0.0 mm 0.00 in0.0 mm
03:40 PM 84.5°F29.2°C 52.2°F11.2°C 33% 3.5 mph NW5.6 kmh NW 6.9 mph11.1 kmh 29.84 in1010.5 mb - 0.00 in0.0 mm 0.00 in0.0 mm
03:35 PM 84.5°F29.2°C 52.2°F11.2°C 33% Calm Calm 6.9 mph11.1 kmh 29.84 in1010.5 mb - 0.00 in0.0 mm 0.00 in0.0 mm
03:30 PM 84.8°F29.3°C 53.3°F11.8°C 34% 4.6 mph NW7.4 kmh NW 8.1 mph13.0 kmh 29.85 in1010.8 mb - 0.00 in0.0 mm 0.00 in0.0 mm
03:25 PM 84.9°F29.4°C 53.4°F11.9°C 34% Calm Calm -- 29.85 in1010.8 mb - 0.00 in0.0 mm 0.00 in0.0 mm
03:20 PM 85.0°F29.4°C 53.5°F11.9°C 34% 1.2 mph NW1.9 kmh NW 5.8 mph9.3 kmh 29.85 in1010.8 mb - 0.00 in0.0 mm 0.00 in0.0 mm
03:15 PM 85.1°F29.5°C 52.7°F11.5°C 33% 4.6 mph NNW7.4 kmh NNW 6.9 mph11.1 kmh 29.85 in1010.8 mb - 0.00 in0.0 mm 0.00 in0.0 mm
03:10 PM 84.9°F29.4°C 53.4°F11.9°C 34% 2.3 mph N3.7 kmh N 5.8 mph9.3 kmh 29.85 in1010.8 mb - 0.00 in0.0 mm 0.00 in0.0 mm
03:00 PM 84.9°F29.4°C 53.4°F11.9°C 34% Calm Calm 1.2 mph1.9 kmh 29.85 in1010.8 mb - 0.00 in0.0 mm 0.00 in0.0 mm
02:55 PM 84.8°F29.3°C 53.3°F11.8°C 34% Calm Calm 3.5 mph5.6 kmh 29.85 in1010.8 mb - 0.00 in0.0 mm 0.00 in0.0 mm
02:50 PM 84.8°F29.3°C 53.3°F11.8°C 34% Calm Calm 5.8 mph9.3 kmh 29.85 in1010.8 mb - 0.00 in0.0 mm 0.00 in0.0 mm
02:45 PM 85.0°F29.4°C 53.5°F11.9°C 34% Calm Calm -- 29.85 in1010.8 mb - 0.00 in0.0 mm 0.00 in0.0 mm
02:40 PM 85.3°F29.6°C 52.9°F11.6°C 33% 1.2 mph N1.9 kmh N 5.8 mph9.3 kmh 29.85 in1010.8 mb - 0.00 in0.0 mm 0.00 in0.0 mm
02:35 PM 85.5°F29.7°C 53.1°F11.7°C 33% 3.5 mph N5.6 kmh N 6.9 mph11.1 kmh 29.86 in1011.2 mb - 0.00 in0.0 mm 0.00 in0.0 mm
02:30 PM 85.2°F29.6°C 53.7°F12.1°C 34% 1.2 mph N1.9 kmh N 5.8 mph9.3 kmh 29.86 in1011.2 mb - 0.00 in0.0 mm 0.00 in0.0 mm
02:25 PM 84.8°F29.3°C 53.3°F11.8°C 34% 3.5 mph N5.6 kmh N 6.9 mph11.1 kmh 29.85 in1010.8 mb - 0.00 in0.0 mm 0.00 in0.0 mm
02:20 PM 84.2°F29.0°C 53.6°F12.0°C 35% 2.3 mph N3.7 kmh N 4.6 mph7.4 kmh 29.86 in1011.2 mb - 0.00 in0.0 mm 0.00 in0.0 mm
02:15 PM 83.9°F28.8°C 52.5°F11.4°C 34% Calm Calm 3.5 mph5.6 kmh 29.86 in1011.2 mb - 0.00 in0.0 mm 0.00 in0.0 mm
02:10 PM 84.0°F28.9°C 54.2°F12.3°C 36% 2.3 mph N3.7 kmh N 4.6 mph7.4 kmh 29.86 in1011.2 mb - 0.00 in0.0 mm 0.00 in0.0 mm
02:00 PM 84.3°F29.1°C 52.9°F11.6°C 34% Calm Calm -- 29.86 in1011.2 mb - 0.00 in0.0 mm 0.00 in0.0 mm
01:55 PM 84.1°F28.9°C 51.9°F11.1°C 33% Calm Calm -- 29.86 in1011.2 mb - 0.00 in0.0 mm 0.00 in0.0 mm
01:50 PM 84.2°F29.0°C 52.0°F11.1°C 33% Calm Calm -- 29.86 in1011.2 mb - 0.00 in0.0 mm 0.00 in0.0 mm
01:45 PM 84.8°F29.3°C 52.5°F11.4°C 33% Calm Calm -- 29.86 in1011.2 mb - 0.00 in0.0 mm 0.00 in0.0 mm
01:40 PM 85.1°F29.5°C 53.6°F12.0°C 34% 5.8 mph E9.3 kmh E 6.9 mph11.1 kmh 29.86 in1011.2 mb - 0.00 in0.0 mm 0.00 in0.0 mm
01:35 PM 85.0°F29.4°C 52.7°F11.5°C 33% Calm Calm -- 29.86 in1011.2 mb - 0.00 in0.0 mm 0.00 in0.0 mm
01:30 PM 85.1°F29.5°C 52.8°F11.6°C 33% Calm Calm -- 29.86 in1011.2 mb - 0.00 in0.0 mm 0.00 in0.0 mm
01:25 PM 85.6°F29.8°C 53.2°F11.8°C 33% Calm Calm -- 29.87 in1011.5 mb - 0.00 in0.0 mm 0.00 in0.0 mm
01:20 PM 85.4°F29.7°C 53.0°F11.7°C 33% Calm Calm -- 29.87 in1011.5 mb - 0.00 in0.0 mm 0.00 in0.0 mm
01:15 PM 85.1°F29.5°C 52.8°F11.6°C 33% Calm Calm -- 29.87 in1011.5 mb - 0.00 in0.0 mm 0.00 in0.0 mm
01:10 PM 84.8°F29.3°C 53.3°F11.8°C 34% 1.2 mph E1.9 kmh E 5.8 mph9.3 kmh 29.87 in1011.5 mb - 0.00 in0.0 mm 0.00 in0.0 mm
01:00 PM 83.9°F28.8°C 52.5°F11.4°C 34% Calm Calm -- 29.87 in1011.5 mb - 0.00 in0.0 mm 0.00 in0.0 mm
12:55 PM 84.2°F29.0°C 52.0°F11.1°C 33% Calm Calm -- 29.87 in1011.5 mb - 0.00 in0.0 mm 0.00 in0.0 mm
12:50 PM 83.7°F28.7°C 52.3°F11.3°C 34% Calm Calm -- 29.88 in1011.9 mb - 0.00 in0.0 mm 0.00 in0.0 mm
12:45 PM 83.1°F28.4°C 51.9°F11.1°C 34% 1.2 mph E1.9 kmh E -- 29.88 in1011.9 mb - 0.00 in0.0 mm 0.00 in0.0 mm
12:40 PM 83.1°F28.4°C 51.8°F11.0°C 34% Calm Calm -- 29.88 in1011.9 mb - 0.00 in0.0 mm 0.00 in0.0 mm
12:35 PM 83.7°F28.7°C 52.3°F11.3°C 34% Calm Calm 4.6 mph7.4 kmh 29.88 in1011.9 mb - 0.00 in0.0 mm 0.00 in0.0 mm
12:30 PM 83.5°F28.6°C 52.2°F11.2°C 34% Calm Calm -- 29.88 in1011.9 mb - 0.00 in0.0 mm 0.00 in0.0 mm
12:25 PM 83.3°F28.5°C 52.0°F11.1°C 34% Calm Calm 1.2 mph1.9 kmh 29.88 in1011.9 mb - 0.00 in0.0 mm 0.00 in0.0 mm
12:20 PM 82.9°F28.3°C 51.6°F10.9°C 34% Calm Calm 3.5 mph5.6 kmh 29.88 in1011.9 mb - 0.00 in0.0 mm 0.00 in0.0 mm
12:15 PM 82.8°F28.2°C 52.3°F11.3°C 35% Calm Calm -- 29.88 in1011.9 mb - 0.00 in0.0 mm 0.00 in0.0 mm
12:10 PM 82.2°F27.9°C 51.9°F11.1°C 35% Calm Calm 1.2 mph1.9 kmh 29.88 in1011.9 mb - 0.00 in0.0 mm 0.00 in0.0 mm
12:00 PM 82.1°F27.8°C 51.7°F10.9°C 35% Calm Calm -- 29.88 in1011.9 mb - 0.00 in0.0 mm 0.00 in0.0 mm
11:55 AM 82.2°F27.9°C 51.0°F10.6°C 34% Calm Calm -- 29.88 in1011.9 mb - 0.00 in0.0 mm 0.00 in0.0 mm
11:50 AM 82.0°F27.8°C 51.6°F10.9°C 35% Calm Calm -- 29.88 in1011.9 mb - 0.00 in0.0 mm 0.00 in0.0 mm
11:45 AM 82.0°F27.8°C 50.9°F10.5°C 34% Calm Calm -- 29.89 in1012.2 mb - 0.00 in0.0 mm 0.00 in0.0 mm
11:40 AM 81.9°F27.7°C 50.8°F10.4°C 34% 4.6 mph E7.4 kmh E 8.1 mph13.0 kmh 29.89 in1012.2 mb - 0.00 in0.0 mm 0.00 in0.0 mm
11:35 AM 81.7°F27.6°C 51.4°F10.8°C 35% 2.3 mph E3.7 kmh E 6.9 mph11.1 kmh 29.89 in1012.2 mb - 0.00 in0.0 mm 0.00 in0.0 mm
11:30 AM 81.9°F27.7°C 51.6°F10.9°C 35% Calm Calm -- 29.89 in1012.2 mb - 0.00 in0.0 mm 0.00 in0.0 mm
11:25 AM 81.7°F27.6°C 52.2°F11.2°C 36% 1.2 mph E1.9 kmh E -- 29.89 in1012.2 mb - 0.00 in0.0 mm 0.00 in0.0 mm
11:20 AM 81.9°F27.7°C 51.5°F10.8°C 35% Calm Calm -- 29.89 in1012.2 mb - 0.00 in0.0 mm 0.00 in0.0 mm
11:15 AM 81.6°F27.6°C 52.0°F11.1°C 36% Calm Calm 1.2 mph1.9 kmh 29.89 in1012.2 mb - 0.00 in0.0 mm 0.00 in0.0 mm
11:10 AM 81.2°F27.3°C 52.4°F11.3°C 37% 4.6 mph E7.4 kmh E 6.9 mph11.1 kmh 29.89 in1012.2 mb - 0.00 in0.0 mm 0.00 in0.0 mm
11:00 AM 81.4°F27.4°C 51.9°F11.1°C 36% Calm Calm 1.2 mph1.9 kmh 29.88 in1011.9 mb - 0.00 in0.0 mm 0.00 in0.0 mm
10:55 AM 81.5°F27.5°C 52.7°F11.5°C 37% Calm Calm 1.2 mph1.9 kmh 29.89 in1012.2 mb - 0.00 in0.0 mm 0.00 in0.0 mm
10:50 AM 81.4°F27.4°C 51.9°F11.1°C 36% Calm Calm -- 29.89 in1012.2 mb - 0.00 in0.0 mm 0.00 in0.0 mm
10:45 AM 81.1°F27.3°C 52.4°F11.3°C 37% Calm Calm -- 29.89 in1012.2 mb - 0.00 in0.0 mm 0.00 in0.0 mm
10:40 AM 81.0°F27.2°C 52.3°F11.3°C 37% Calm Calm -- 29.89 in1012.2 mb - 0.00 in0.0 mm 0.00 in0.0 mm
10:35 AM 80.8°F27.1°C 52.1°F11.2°C 37% 4.6 mph E7.4 kmh E 9.2 mph14.8 kmh 29.89 in1012.2 mb - 0.00 in0.0 mm 0.00 in0.0 mm
10:30 AM 80.6°F27.0°C 52.6°F11.4°C 38% Calm Calm 1.2 mph1.9 kmh 29.89 in1012.2 mb - 0.00 in0.0 mm 0.00 in0.0 mm
10:25 AM 80.6°F27.0°C 52.6°F11.4°C 38% Calm Calm 1.2 mph1.9 kmh 29.89 in1012.2 mb - 0.00 in0.0 mm 0.00 in0.0 mm
10:20 AM 80.5°F26.9°C 52.6°F11.4°C 38% Calm Calm -- 29.89 in1012.2 mb - 0.00 in0.0 mm 0.00 in0.0 mm
10:15 AM 80.1°F26.7°C 52.9°F11.6°C 39% Calm Calm 1.2 mph1.9 kmh 29.89 in1012.2 mb - 0.00 in0.0 mm 0.00 in0.0 mm
10:10 AM 80.0°F26.7°C 52.8°F11.6°C 39% 4.6 mph E7.4 kmh E 5.8 mph9.3 kmh 29.89 in1012.2 mb - 0.00 in0.0 mm 0.00 in0.0 mm
10:00 AM 79.6°F26.4°C 53.2°F11.8°C 40% 1.2 mph E1.9 kmh E 11.5 mph18.5 kmh 29.89 in1012.2 mb - 0.00 in0.0 mm 0.00 in0.0 mm
09:55 AM 79.4°F26.3°C 53.0°F11.7°C 40% 3.5 mph E5.6 kmh E 9.2 mph14.8 kmh 29.89 in1012.2 mb - 0.00 in0.0 mm 0.00 in0.0 mm
09:50 AM 79.1°F26.2°C 54.0°F12.2°C 42% 1.2 mph ENE1.9 kmh ENE 6.9 mph11.1 kmh 29.89 in1012.2 mb - 0.00 in0.0 mm 0.00 in0.0 mm
09:45 AM 78.9°F26.1°C 53.8°F12.1°C 42% 1.2 mph ENE1.9 kmh ENE -- 29.89 in1012.2 mb - 0.00 in0.0 mm 0.00 in0.0 mm
09:40 AM 78.5°F25.8°C 54.8°F12.7°C 44% 3.5 mph ENE5.6 kmh ENE 8.1 mph13.0 kmh 29.89 in1012.2 mb - 0.00 in0.0 mm 0.00 in0.0 mm
09:35 AM 78.4°F25.8°C 54.0°F12.2°C 43% Calm Calm 5.8 mph9.3 kmh 29.89 in1012.2 mb - 0.00 in0.0 mm 0.00 in0.0 mm
09:30 AM 77.9°F25.5°C 54.9°F12.7°C 45% 3.5 mph ENE5.6 kmh ENE 5.8 mph9.3 kmh 29.89 in1012.2 mb - 0.00 in0.0 mm 0.00 in0.0 mm
09:25 AM 77.6°F25.3°C 55.1°F12.8°C 46% Calm Calm 1.2 mph1.9 kmh 29.89 in1012.2 mb - 0.00 in0.0 mm 0.00 in0.0 mm
09:20 AM 77.3°F25.2°C 54.3°F12.4°C 45% Calm Calm 1.2 mph1.9 kmh 29.89 in1012.2 mb - 0.00 in0.0 mm 0.00 in0.0 mm
09:15 AM 77.2°F25.1°C 54.8°F12.7°C 46% 1.2 mph ENE1.9 kmh ENE 1.2 mph1.9 kmh 29.89 in1012.2 mb - 0.00 in0.0 mm 0.00 in0.0 mm
09:10 AM 77.0°F25.0°C 54.6°F12.6°C 46% 1.2 mph ENE1.9 kmh ENE 1.2 mph1.9 kmh 29.89 in1012.2 mb - 0.00 in0.0 mm 0.00 in0.0 mm
09:00 AM 76.7°F24.8°C 55.6°F13.1°C 48% Calm Calm 3.5 mph5.6 kmh 29.90 in1012.5 mb - 0.00 in0.0 mm 0.00 in0.0 mm
08:55 AM 76.3°F24.6°C 55.2°F12.9°C 48% Calm Calm -- 29.90 in1012.5 mb - 0.00 in0.0 mm 0.00 in0.0 mm
08:50 AM 75.9°F24.4°C 55.4°F13.0°C 49% Calm Calm -- 29.90 in1012.5 mb - 0.00 in0.0 mm 0.00 in0.0 mm
08:45 AM 75.5°F24.2°C 55.6°F13.1°C 50% 1.2 mph ENE1.9 kmh ENE 4.6 mph7.4 kmh 29.90 in1012.5 mb - 0.00 in0.0 mm 0.00 in0.0 mm
08:40 AM 75.1°F23.9°C 55.7°F13.2°C 51% 3.5 mph ENE5.6 kmh ENE 4.6 mph7.4 kmh 29.90 in1012.5 mb - 0.00 in0.0 mm 0.00 in0.0 mm
08:35 AM 74.8°F23.8°C 55.5°F13.1°C 51% Calm Calm 4.6 mph7.4 kmh 29.90 in1012.5 mb - 0.00 in0.0 mm 0.00 in0.0 mm
08:30 AM 74.5°F23.6°C 55.2°F12.9°C 51% 1.2 mph ENE1.9 kmh ENE 3.5 mph5.6 kmh 29.90 in1012.5 mb - 0.00 in0.0 mm 0.00 in0.0 mm
08:25 AM 74.1°F23.4°C 55.3°F12.9°C 52% 2.3 mph ENE3.7 kmh ENE 4.6 mph7.4 kmh 29.90 in1012.5 mb - 0.00 in0.0 mm 0.00 in0.0 mm
08:20 AM 73.7°F23.2°C 55.5°F13.1°C 53% Calm Calm -- 29.90 in1012.5 mb - 0.00 in0.0 mm 0.00 in0.0 mm
08:15 AM 73.2°F22.9°C 55.5°F13.1°C 54% Calm Calm -- 29.90 in1012.5 mb - 0.00 in0.0 mm 0.00 in0.0 mm
08:10 AM 72.7°F22.6°C 56.1°F13.4°C 56% 2.3 mph NE3.7 kmh NE 6.9 mph11.1 kmh 29.91 in1012.9 mb - 0.00 in0.0 mm 0.00 in0.0 mm
08:00 AM 71.7°F22.1°C 57.5°F14.2°C 61% 1.2 mph NE1.9 kmh NE 5.8 mph9.3 kmh 29.90 in1012.5 mb - 0.00 in0.0 mm 0.00 in0.0 mm
07:55 AM 71.3°F21.8°C 58.5°F14.7°C 64% Calm Calm -- 29.90 in1012.5 mb - 0.00 in0.0 mm 0.00 in0.0 mm
07:50 AM 71.0°F21.7°C 58.6°F14.8°C 65% Calm Calm -- 29.90 in1012.5 mb - 0.00 in0.0 mm 0.00 in0.0 mm
07:45 AM 70.7°F21.5°C 58.4°F14.7°C 65% Calm Calm -- 29.90 in1012.5 mb - 0.00 in0.0 mm 0.00 in0.0 mm
07:40 AM 70.5°F21.4°C 58.2°F14.6°C 65% Calm Calm -- 29.90 in1012.5 mb - 0.00 in0.0 mm 0.00 in0.0 mm
07:35 AM 70.4°F21.3°C 58.0°F14.4°C 65% Calm Calm -- 29.90 in1012.5 mb - 0.00 in0.0 mm 0.00 in0.0 mm
07:30 AM 70.3°F21.3°C 57.5°F14.2°C 64% Calm Calm -- 29.90 in1012.5 mb - 0.00 in0.0 mm 0.00 in0.0 mm
07:25 AM 70.3°F21.3°C 57.1°F13.9°C 63% Calm Calm -- 29.90 in1012.5 mb - 0.00 in0.0 mm 0.00 in0.0 mm
07:20 AM 70.3°F21.3°C 57.1°F13.9°C 63% Calm Calm -- 29.90 in1012.5 mb - 0.00 in0.0 mm 0.00 in0.0 mm
07:15 AM 70.4°F21.3°C 56.8°F13.8°C 62% Calm Calm -- 29.90 in1012.5 mb - 0.00 in0.0 mm 0.00 in0.0 mm
07:10 AM 70.7°F21.5°C 56.6°F13.7°C 61% Calm Calm -- 29.90 in1012.5 mb - 0.00 in0.0 mm 0.00 in0.0 mm
07:00 AM 71.2°F21.8°C 57.1°F13.9°C 61% Calm Calm -- 29.90 in1012.5 mb - 0.00 in0.0 mm 0.00 in0.0 mm
06:55 AM 71.0°F21.7°C 56.9°F13.8°C 61% Calm Calm -- 29.90 in1012.5 mb - 0.00 in0.0 mm 0.00 in0.0 mm
06:50 AM 70.7°F21.5°C 57.1°F13.9°C 62% Calm Calm -- 29.90 in1012.5 mb - 0.00 in0.0 mm 0.00 in0.0 mm
06:45 AM 70.3°F21.3°C 56.7°F13.7°C 62% Calm Calm -- 29.90 in1012.5 mb - 0.00 in0.0 mm 0.00 in0.0 mm
06:40 AM 70.0°F21.1°C 56.9°F13.8°C 63% Calm Calm -- 29.90 in1012.5 mb - 0.00 in0.0 mm 0.00 in0.0 mm
06:35 AM 69.7°F20.9°C 56.5°F13.6°C 63% Calm Calm -- 29.90 in1012.5 mb - 0.00 in0.0 mm 0.00 in0.0 mm
06:30 AM 69.4°F20.8°C 56.7°F13.7°C 64% Calm Calm -- 29.90 in1012.5 mb - 0.00 in0.0 mm 0.00 in0.0 mm
06:25 AM 69.2°F20.7°C 56.5°F13.6°C 64% Calm Calm -- 29.90 in1012.5 mb - 0.00 in0.0 mm 0.00 in0.0 mm
06:20 AM 69.0°F20.6°C 56.7°F13.7°C 65% Calm Calm -- 29.90 in1012.5 mb - 0.00 in0.0 mm 0.00 in0.0 mm
06:15 AM 68.5°F20.3°C 57.1°F13.9°C 67% Calm Calm -- 29.91 in1012.9 mb - 0.00 in0.0 mm 0.00 in0.0 mm
06:10 AM 68.0°F20.0°C 56.6°F13.7°C 67% Calm Calm -- 29.90 in1012.5 mb - 0.00 in0.0 mm 0.00 in0.0 mm
06:00 AM 67.4°F19.7°C 56.8°F13.8°C 69% Calm Calm -- 29.91 in1012.9 mb - 0.00 in0.0 mm 0.00 in0.0 mm
05:55 AM 66.9°F19.4°C 56.8°F13.8°C 70% Calm Calm -- 29.90 in1012.5 mb - 0.00 in0.0 mm 0.00 in0.0 mm
05:50 AM 66.3°F19.1°C 57.0°F13.9°C 72% Calm Calm -- 29.91 in1012.9 mb - 0.00 in0.0 mm 0.00 in0.0 mm
05:45 AM 65.7°F18.7°C 56.8°F13.8°C 73% Calm Calm -- 29.91 in1012.9 mb - 0.00 in0.0 mm 0.00 in0.0 mm
05:40 AM 65.2°F18.4°C 56.7°F13.7°C 74% Calm Calm -- 29.91 in1012.9 mb - 0.00 in0.0 mm 0.00 in0.0 mm
05:35 AM 64.8°F18.2°C 56.3°F13.5°C 74% Calm Calm -- 29.90 in1012.5 mb - 0.00 in0.0 mm 0.00 in0.0 mm
05:30 AM 64.5°F18.1°C 56.4°F13.6°C 75% Calm Calm -- 29.91 in1012.9 mb - 0.00 in0.0 mm 0.00 in0.0 mm
05:25 AM 64.1°F17.8°C 56.4°F13.6°C 76% Calm Calm -- 29.91 in1012.9 mb - 0.00 in0.0 mm 0.00 in0.0 mm
05:20 AM 63.8°F17.7°C 56.1°F13.4°C 76% Calm Calm -- 29.91 in1012.9 mb - 0.00 in0.0 mm 0.00 in0.0 mm
05:15 AM 63.6°F17.6°C 55.9°F13.3°C 76% Calm Calm -- 29.91 in1012.9 mb - 0.00 in0.0 mm 0.00 in0.0 mm
05:10 AM 63.6°F17.6°C 55.9°F13.3°C 76% Calm Calm -- 29.90 in1012.5 mb - 0.00 in0.0 mm 0.00 in0.0 mm
05:00 AM 63.7°F17.6°C 56.0°F13.3°C 76% Calm Calm -- 29.91 in1012.9 mb - 0.00 in0.0 mm 0.00 in0.0 mm
04:55 AM 63.8°F17.7°C 56.1°F13.4°C 76% Calm Calm -- 29.90 in1012.5 mb - 0.00 in0.0 mm 0.00 in0.0 mm
04:50 AM 63.9°F17.7°C 56.1°F13.4°C 76% Calm Calm -- 29.90 in1012.5 mb - 0.00 in0.0 mm 0.00 in0.0 mm
04:45 AM 63.9°F17.7°C 56.2°F13.4°C 76% Calm Calm -- 29.91 in1012.9 mb - 0.00 in0.0 mm 0.00 in0.0 mm
04:40 AM 64.0°F17.8°C 56.3°F13.5°C 76% Calm Calm -- 29.91 in1012.9 mb - 0.00 in0.0 mm 0.00 in0.0 mm
04:35 AM 64.1°F17.8°C 56.4°F13.6°C 76% Calm Calm -- 29.90 in1012.5 mb - 0.00 in0.0 mm 0.00 in0.0 mm
04:30 AM 64.2°F17.9°C 56.8°F13.8°C 77% Calm Calm -- 29.90 in1012.5 mb - 0.00 in0.0 mm 0.00 in0.0 mm
04:25 AM 64.3°F17.9°C 56.6°F13.7°C 76% Calm Calm -- 29.90 in1012.5 mb - 0.00 in0.0 mm 0.00 in0.0 mm
04:20 AM 64.4°F18.0°C 56.7°F13.7°C 76% Calm Calm -- 29.90 in1012.5 mb - 0.00 in0.0 mm 0.00 in0.0 mm
04:15 AM 64.6°F18.1°C 56.8°F13.8°C 76% Calm Calm -- 29.90 in1012.5 mb - 0.00 in0.0 mm 0.00 in0.0 mm
04:10 AM 64.7°F18.2°C 56.9°F13.8°C 76% Calm Calm -- 29.90 in1012.5 mb - 0.00 in0.0 mm 0.00 in0.0 mm
04:00 AM 64.8°F18.2°C 57.1°F13.9°C 76% Calm Calm -- 29.90 in1012.5 mb - 0.00 in0.0 mm 0.00 in0.0 mm
03:55 AM 64.9°F18.3°C 57.2°F14.0°C 76% Calm Calm -- 29.90 in1012.5 mb - 0.00 in0.0 mm 0.00 in0.0 mm
03:50 AM 65.0°F18.3°C 57.2°F14.0°C 76% Calm Calm -- 29.90 in1012.5 mb - 0.00 in0.0 mm 0.00 in0.0 mm
03:45 AM 65.0°F18.3°C 57.3°F14.1°C 76% Calm Calm -- 29.90 in1012.5 mb - 0.00 in0.0 mm 0.00 in0.0 mm
03:40 AM 65.1°F18.4°C 57.3°F14.1°C 76% Calm Calm -- 29.90 in1012.5 mb - 0.00 in0.0 mm 0.00 in0.0 mm
03:35 AM 65.2°F18.4°C 57.4°F14.1°C 76% Calm Calm -- 29.90 in1012.5 mb - 0.00 in0.0 mm 0.00 in0.0 mm
03:30 AM 65.2°F18.4°C 57.4°F14.1°C 76% Calm Calm -- 29.90 in1012.5 mb - 0.00 in0.0 mm 0.00 in0.0 mm
03:25 AM 65.3°F18.5°C 57.6°F14.2°C 76% Calm Calm -- 29.90 in1012.5 mb - 0.00 in0.0 mm 0.00 in0.0 mm
03:20 AM 65.4°F18.6°C 58.0°F14.4°C 77% Calm Calm -- 29.91 in1012.9 mb - 0.00 in0.0 mm 0.00 in0.0 mm
03:15 AM 65.5°F18.6°C 58.1°F14.5°C 77% Calm Calm -- 29.91 in1012.9 mb - 0.00 in0.0 mm 0.00 in0.0 mm
03:10 AM 65.5°F18.6°C 58.5°F14.7°C 78% Calm Calm -- 29.90 in1012.5 mb - 0.00 in0.0 mm 0.00 in0.0 mm
03:00 AM 65.7°F18.7°C 58.7°F14.8°C 78% Calm Calm -- 29.91 in1012.9 mb - 0.00 in0.0 mm 0.00 in0.0 mm
02:55 AM 65.7°F18.7°C 59.0°F15.0°C 79% Calm Calm -- 29.91 in1012.9 mb - 0.00 in0.0 mm 0.00 in0.0 mm
02:50 AM 65.8°F18.8°C 59.1°F15.1°C 79% Calm Calm -- 29.91 in1012.9 mb - 0.00 in0.0 mm 0.00 in0.0 mm
02:45 AM 65.8°F18.8°C 59.1°F15.1°C 79% Calm Calm -- 29.91 in1012.9 mb - 0.00 in0.0 mm 0.00 in0.0 mm
02:40 AM 65.9°F18.8°C 59.6°F15.3°C 80% Calm Calm -- 29.91 in1012.9 mb - 0.00 in0.0 mm 0.00 in0.0 mm
02:35 AM 65.9°F18.8°C 59.6°F15.3°C 80% Calm Calm -- 29.91 in1012.9 mb - 0.00 in0.0 mm 0.00 in0.0 mm
02:30 AM 66.0°F18.9°C 59.7°F15.4°C 80% Calm Calm -- 29.91 in1012.9 mb - 0.00 in0.0 mm 0.00 in0.0 mm
02:25 AM 66.1°F18.9°C 59.7°F15.4°C 80% Calm Calm -- 29.91 in1012.9 mb - 0.00 in0.0 mm 0.00 in0.0 mm
02:20 AM 66.1°F18.9°C 59.8°F15.4°C 80% Calm Calm -- 29.91 in1012.9 mb - 0.00 in0.0 mm 0.00 in0.0 mm
02:15 AM 66.2°F19.0°C 60.2°F15.7°C 81% Calm Calm -- 29.91 in1012.9 mb - 0.00 in0.0 mm 0.00 in0.0 mm
02:10 AM 66.3°F19.1°C 60.3°F15.7°C 81% Calm Calm -- 29.91 in1012.9 mb - 0.00 in0.0 mm 0.00 in0.0 mm
02:00 AM 66.6°F19.2°C 60.2°F15.7°C 80% Calm Calm -- 29.91 in1012.9 mb - 0.00 in0.0 mm 0.00 in0.0 mm
01:55 AM 66.7°F19.3°C 60.3°F15.7°C 80% Calm Calm -- 29.91 in1012.9 mb - 0.00 in0.0 mm 0.00 in0.0 mm
01:50 AM 66.8°F19.3°C 60.4°F15.8°C 80% Calm Calm -- 29.91 in1012.9 mb - 0.00 in0.0 mm 0.00 in0.0 mm
01:45 AM 66.9°F19.4°C 60.5°F15.8°C 80% Calm Calm -- 29.91 in1012.9 mb - 0.00 in0.0 mm 0.00 in0.0 mm
01:40 AM 67.0°F19.4°C 60.3°F15.7°C 79% Calm Calm -- 29.91 in1012.9 mb - 0.00 in0.0 mm 0.00 in0.0 mm
01:35 AM 67.2°F19.6°C 60.4°F15.8°C 79% Calm Calm -- 29.91 in1012.9 mb - 0.00 in0.0 mm 0.00 in0.0 mm
01:30 AM 67.3°F19.6°C 60.2°F15.7°C 78% Calm Calm -- 29.92 in1013.2 mb - 0.00 in0.0 mm 0.00 in0.0 mm
01:25 AM 67.5°F19.7°C 60.4°F15.8°C 78% Calm Calm -- 29.92 in1013.2 mb - 0.00 in0.0 mm 0.00 in0.0 mm
01:20 AM 67.6°F19.8°C 60.5°F15.8°C 78% Calm Calm -- 29.92 in1013.2 mb - 0.00 in0.0 mm 0.00 in0.0 mm
01:15 AM 67.8°F19.9°C 60.3°F15.7°C 77% Calm Calm -- 29.92 in1013.2 mb - 0.00 in0.0 mm 0.00 in0.0 mm
01:10 AM 68.0°F20.0°C 60.1°F15.6°C 76% Calm Calm -- 29.92 in1013.2 mb - 0.00 in0.0 mm 0.00 in0.0 mm
01:00 AM 68.3°F20.2°C 60.4°F15.8°C 76% Calm Calm -- 29.92 in1013.2 mb - 0.00 in0.0 mm 0.00 in0.0 mm
12:55 AM 68.4°F20.2°C 60.5°F15.8°C 76% Calm Calm -- 29.92 in1013.2 mb - 0.00 in0.0 mm 0.00 in0.0 mm
12:50 AM 68.5°F20.3°C 60.3°F15.7°C 75% Calm Calm -- 29.92 in1013.2 mb - 0.00 in0.0 mm 0.00 in0.0 mm
12:45 AM 68.6°F20.3°C 60.4°F15.8°C 75% Calm Calm -- 29.92 in1013.2 mb - 0.00 in0.0 mm 0.00 in0.0 mm
12:40 AM 68.7°F20.4°C 60.5°F15.8°C 75% 1.2 mph NE1.9 kmh NE 1.2 mph1.9 kmh 29.92 in1013.2 mb - 0.00 in0.0 mm 0.00 in0.0 mm
12:35 AM 68.8°F20.4°C 60.2°F15.7°C 74% 1.2 mph NE1.9 kmh NE 2.3 mph3.7 kmh 29.92 in1013.2 mb - 0.00 in0.0 mm 0.00 in0.0 mm
12:30 AM 69.0°F20.6°C 60.3°F15.7°C 74% Calm Calm -- 29.92 in1013.2 mb - 0.00 in0.0 mm 0.00 in0.0 mm
12:25 AM 69.0°F20.6°C 60.0°F15.6°C 73% Calm Calm -- 29.92 in1013.2 mb - 0.00 in0.0 mm 0.00 in0.0 mm
12:20 AM 69.1°F20.6°C 59.7°F15.4°C 72% 3.5 mph NE5.6 kmh NE 5.8 mph9.3 kmh 29.92 in1013.2 mb - 0.00 in0.0 mm 0.00 in0.0 mm
12:15 AM 69.2°F20.7°C 59.4°F15.2°C 71% Calm Calm -- 29.92 in1013.2 mb - 0.00 in0.0 mm 0.00 in0.0 mm
12:10 AM 69.2°F20.7°C 59.0°F15.0°C 70% Calm Calm 1.2 mph1.9 kmh 29.92 in1013.2 mb - 0.00 in0.0 mm 0.00 in0.0 mm
12:00 AM 69.3°F20.7°C 58.7°F14.8°C 69% Calm Calm -- 29.93 in1013.5 mb - 0.00 in0.0 mm 0.00 in0.0 mm